Seaven Joy — SVCQ8 — position and weather

sailwx.info

Track history (hours):
 
Tides and Currents Weather Stations Pressure Air Temp Water Temp Dewpoint Dewpoint Depression Visibility Wind Speed Wind Dir Waves Ship Positions

Seaven Joy

Last reported at 2018-Feb-23 04:30 UTC. Time now 2018-Feb-23 04:56 UTC.
Position N 56°05' W 002°53'.

Length 100 m; draft 5.5 m.

Type: Ship. MMSI: 241523000.

Date/timePositionNaut miles runAvg speedWind from/ knotsBaromVisibWave heightAir tempDewpointWater temp
2018-Feb-23 04:30N 56°05' W 002°53'510.4
2018-Feb-23 04:00N 56°06' W 002°44'510.4
2018-Feb-23 03:30N 56°07' W 002°35'510.3
2018-Feb-23 03:00N 56°07' W 002°26'510.5
2018-Feb-23 02:30N 56°07' W 002°17'510.6
2018-Feb-23 02:00N 56°05' W 002°08'610.9
2018-Feb-23 01:28N 56°01' W 001°60'510.9
2018-Feb-23 01:00N 55°58' W 001°53'611.1
2018-Feb-23 00:30N 55°54' W 001°45'510.8
2018-Feb-23 00:00N 55°51' W 001°38'2510.5
2018-Feb-22 21:37N 55°34' W 001°04'270 9.3
2018-Feb-21 16:35N 51°34' E 002°23'211.6
2018-Feb-21 16:23N 51°32' E 002°21'511.4
2018-Feb-21 15:56N 51°28' E 002°16'511.9
2018-Feb-21 15:29N 51°23' E 002°12'511.2
2018-Feb-21 15:00N 51°18' E 002°07'611.6
2018-Feb-21 14:30N 51°14' E 002°02'611.4
2018-Feb-21 14:00N 51°11' E 001°54'510.7
2018-Feb-21 13:30N 51°07' E 001°47'510.1
2018-Feb-21 13:00N 51°04' E 001°41'5 9.1
2018-Feb-21 12:30N 51°01' E 001°36'4 8.5
2018-Feb-21 11:59N 50°58' E 001°31'64 7.5
2018-Feb-21 03:31N 50°21' E 000°09'1 8.3
2018-Feb-21 03:26N 50°21' E 000°08'4 8.5
2018-Feb-21 02:58N 50°20' E 000°02'5 8.9
2018-Feb-21 02:25N 50°19' W 000°05'4811.1
2018-Feb-20 22:07N 50°06' W 001°17'112.0
2018-Feb-20 22:00N 50°06' W 001°20'611.9
2018-Feb-20 21:31N 50°04' W 001°28'611.6
2018-Feb-20 21:00N 50°03' W 001°37'611.2
2018-Feb-20 20:29N 50°01' W 001°46'42 7.8
2018-Feb-20 15:04N 49°50' W 002°50'  
2018-Feb-17 05:16N 39°21' W 009°43'410.3
2018-Feb-17 04:53N 39°17' W 009°43'410.3
2018-Feb-17 04:30N 39°13' W 009°43'510.4
2018-Feb-17 03:59N 39°08' W 009°45'510.3
2018-Feb-17 03:30N 39°03' W 009°47'5 9.9
2018-Feb-17 03:00N 38°59' W 009°49'510.1
2018-Feb-17 02:30N 38°56' W 009°55'6 9.8
2018-Feb-17 01:53N 38°50' W 009°56'410.1
2018-Feb-17 01:30N 38°46' W 009°56'610.2
2018-Feb-17 00:54N 38°40' W 009°56'410.3
2018-Feb-17 00:30N 38°36' W 009°55'5 9.9
2018-Feb-17 00:00N 38°31' W 009°53'259 8.2
2018-Feb-15 16:32N 35°59' W 005°30'1 8.2
2018-Feb-15 16:26N 35°60' W 005°29'3 7.8
2018-Feb-15 16:00N 36°01' W 005°25'8 0.9
2018-Feb-15 07:22N 36°09' W 005°22'0 0.0
2018-Feb-15 06:10N 36°09' W 005°22'0 0.0
2018-Feb-15 05:55N 36°09' W 005°22'0 0.0
2018-Feb-15 05:28N 36°09' W 005°22'0 0.0
2018-Feb-15 04:58N 36°09' W 005°22'0 0.0
2018-Feb-15 04:28N 36°09' W 005°22'0 0.0
2018-Feb-15 03:58N 36°09' W 005°22'0 0.0
2018-Feb-15 03:22N 36°09' W 005°22'0 0.0
2018-Feb-15 02:58N 36°09' W 005°22'0 0.1
2018-Feb-15 02:29N 36°09' W 005°22'0 0.8
2018-Feb-15 02:00N 36°09' W 005°22'1 0.2
2018-Feb-14 20:01N 36°08' W 005°22'2 6.4
2018-Feb-14 19:45N 36°06' W 005°22'1 4.3
2018-Feb-14 19:30N 36°05' W 005°21'2 4.0
2018-Feb-14 19:00N 36°05' W 005°19'1 1.5
2018-Feb-14 18:28N 36°05' W 005°18'3 6.1
2018-Feb-14 17:59N 36°06' W 005°15'  
Track history (hours):
 
Tides and Currents Weather Stations Pressure Air Temp Water Temp Dewpoint Dewpoint Depression Visibility Wind Speed Wind Dir Waves Ship Positions

Seaven Joy

Last reported at 2018-Feb-23 04:30 UTC. Time now 2018-Feb-23 04:56 UTC.
Position N 56°05' W 002°53'.

Length 100 m; draft 5.5 m.

Type: Ship. MMSI: 241523000.

Date/timePositionNaut miles runAvg speedWind from/ knotsBaromVisibWave heightAir tempDewpointWater temp
2018-Feb-23 04:30N 56°05' W 002°53'510.4
2018-Feb-23 04:00N 56°06' W 002°44'510.4
2018-Feb-23 03:30N 56°07' W 002°35'510.3
2018-Feb-23 03:00N 56°07' W 002°26'510.5
2018-Feb-23 02:30N 56°07' W 002°17'510.6
2018-Feb-23 02:00N 56°05' W 002°08'610.9
2018-Feb-23 01:28N 56°01' W 001°60'510.9
2018-Feb-23 01:00N 55°58' W 001°53'611.1
2018-Feb-23 00:30N 55°54' W 001°45'510.8
2018-Feb-23 00:00N 55°51' W 001°38'2510.5
2018-Feb-22 21:37N 55°34' W 001°04'270 9.3
2018-Feb-21 16:35N 51°34' E 002°23'211.6
2018-Feb-21 16:23N 51°32' E 002°21'511.4
2018-Feb-21 15:56N 51°28' E 002°16'511.9
2018-Feb-21 15:29N 51°23' E 002°12'511.2
2018-Feb-21 15:00N 51°18' E 002°07'611.6
2018-Feb-21 14:30N 51°14' E 002°02'611.4
2018-Feb-21 14:00N 51°11' E 001°54'510.7
2018-Feb-21 13:30N 51°07' E 001°47'510.1
2018-Feb-21 13:00N 51°04' E 001°41'5 9.1
2018-Feb-21 12:30N 51°01' E 001°36'4 8.5
2018-Feb-21 11:59N 50°58' E 001°31'64 7.5
2018-Feb-21 03:31N 50°21' E 000°09'1 8.3
2018-Feb-21 03:26N 50°21' E 000°08'4 8.5
2018-Feb-21 02:58N 50°20' E 000°02'5 8.9
2018-Feb-21 02:25N 50°19' W 000°05'4811.1
2018-Feb-20 22:07N 50°06' W 001°17'112.0
2018-Feb-20 22:00N 50°06' W 001°20'611.9
2018-Feb-20 21:31N 50°04' W 001°28'611.6
2018-Feb-20 21:00N 50°03' W 001°37'611.2
2018-Feb-20 20:29N 50°01' W 001°46'42 7.8
2018-Feb-20 15:04N 49°50' W 002°50'  
2018-Feb-17 05:16N 39°21' W 009°43'410.3
2018-Feb-17 04:53N 39°17' W 009°43'410.3
2018-Feb-17 04:30N 39°13' W 009°43'510.4
2018-Feb-17 03:59N 39°08' W 009°45'510.3
2018-Feb-17 03:30N 39°03' W 009°47'5 9.9
2018-Feb-17 03:00N 38°59' W 009°49'510.1
2018-Feb-17 02:30N 38°56' W 009°55'6 9.8
2018-Feb-17 01:53N 38°50' W 009°56'410.1
2018-Feb-17 01:30N 38°46' W 009°56'610.2
2018-Feb-17 00:54N 38°40' W 009°56'410.3
2018-Feb-17 00:30N 38°36' W 009°55'5 9.9
2018-Feb-17 00:00N 38°31' W 009°53'259 8.2
2018-Feb-15 16:32N 35°59' W 005°30'1 8.2
2018-Feb-15 16:26N 35°60' W 005°29'3 7.8
2018-Feb-15 16:00N 36°01' W 005°25'8 0.9
2018-Feb-15 07:22N 36°09' W 005°22'0 0.0
2018-Feb-15 06:10N 36°09' W 005°22'0 0.0
2018-Feb-15 05:55N 36°09' W 005°22'0 0.0
2018-Feb-15 05:28N 36°09' W 005°22'0 0.0
2018-Feb-15 04:58N 36°09' W 005°22'0 0.0
2018-Feb-15 04:28N 36°09' W 005°22'0 0.0
2018-Feb-15 03:58N 36°09' W 005°22'0 0.0
2018-Feb-15 03:22N 36°09' W 005°22'0 0.0
2018-Feb-15 02:58N 36°09' W 005°22'0 0.1
2018-Feb-15 02:29N 36°09' W 005°22'0 0.8
2018-Feb-15 02:00N 36°09' W 005°22'1 0.2
2018-Feb-14 20:01N 36°08' W 005°22'2 6.4
2018-Feb-14 19:45N 36°06' W 005°22'1 4.3
2018-Feb-14 19:30N 36°05' W 005°21'2 4.0
2018-Feb-14 19:00N 36°05' W 005°19'1 1.5
2018-Feb-14 18:28N 36°05' W 005°18'3 6.1
2018-Feb-14 17:59N 36°06' W 005°15'  

Dump ship's entire track history